createdAt,value
2023-01-27T00:01:15.755Z,95442.91
2023-01-27T00:03:42.417Z,95446.38
2023-01-27T00:06:09.020Z,95442.09
2023-01-27T00:08:35.509Z,95437.81
2023-01-27T00:11:02.231Z,95449.31
2023-01-27T00:13:28.966Z,95450.13
2023-01-27T00:15:55.938Z,95443.94
2023-01-27T00:18:23.172Z,95437.25
2023-01-27T00:20:49.816Z,95435.91
2023-01-27T00:23:19.140Z,95445.81
2023-01-27T00:25:45.778Z,95451.94
2023-01-27T00:28:12.292Z,95433.22
2023-01-27T00:30:38.836Z,95435.91
2023-01-27T00:33:06.704Z,95428.94
2023-01-27T00:35:35.520Z,95429.19
2023-01-27T00:38:01.973Z,95429.19
2023-01-27T00:40:28.464Z,95423.84
2023-01-27T00:42:55.022Z,95422.25
2023-01-27T00:45:22.110Z,95432.13
2023-01-27T00:47:48.854Z,95432.69
2023-01-27T00:50:16.007Z,95436.97
2023-01-27T00:52:43.443Z,95424.41
2023-01-27T00:55:10.415Z,95431.34
2023-01-27T00:57:37.896Z,95430.56
2023-01-27T01:00:06.298Z,95432.44
2023-01-27T01:02:33.240Z,95440.19
2023-01-27T01:05:01.132Z,95445.56
2023-01-27T01:07:28.876Z,95436.69
2023-01-27T01:09:55.514Z,95438.56
2023-01-27T01:12:22.391Z,95449.03
2023-01-27T01:14:50.473Z,95443.41
2023-01-27T01:17:17.093Z,95445.84
2023-01-27T01:19:43.585Z,95449.56
2023-01-27T01:22:10.070Z,95446.63
2023-01-27T01:24:36.656Z,95449.31
2023-01-27T01:27:03.275Z,95444.78
2023-01-27T01:29:30.799Z,95455.47
2023-01-27T01:31:58.120Z,95447.47
2023-01-27T01:34:24.619Z,95441.81
2023-01-27T01:36:51.338Z,95435.13
2023-01-27T01:39:18.573Z,95439.69
2023-01-27T01:41:45.240Z,95436.75
2023-01-27T01:44:22.704Z,95437.25
2023-01-27T01:46:49.431Z,95436.19
2023-01-27T01:49:18.691Z,95424.16
2023-01-27T01:51:48.747Z,95426.56
2023-01-27T01:54:20.293Z,95421.22
2023-01-27T01:56:53.732Z,95417.97
2023-01-27T01:59:46.723Z,95432.19
2023-01-27T02:02:15.663Z,95430.03
2023-01-27T02:04:51.038Z,95428.16
2023-01-27T02:07:35.767Z,95409.94
2023-01-27T02:10:02.855Z,95428.41
2023-01-27T02:12:29.665Z,95419.06
2023-01-27T02:14:56.335Z,95415.28
2023-01-27T02:17:23.219Z,95416.91
2023-01-27T02:20:05.277Z,95421.47
2023-01-27T02:22:56.795Z,95411.56
2023-01-27T02:25:35.545Z,95415.28
2023-01-27T02:28:07.336Z,95420.38
2023-01-27T02:30:34.374Z,95418.78
2023-01-27T02:33:01.369Z,95415.28
2023-01-27T02:35:38.871Z,95413.97
2023-01-27T02:38:07.552Z,95420.38
2023-01-27T02:40:36.552Z,95423.28
2023-01-27T02:43:04.975Z,95421.13
2023-01-27T02:45:31.740Z,95415.25
2023-01-27T02:47:59.535Z,95413.34
2023-01-27T02:50:26.265Z,95416.28
2023-01-27T02:52:52.868Z,95420.00
2023-01-27T02:55:19.399Z,95405.03
2023-01-27T02:57:46.073Z,95409.81
2023-01-27T03:00:26.496Z,95408.47
2023-01-27T03:02:54.261Z,95401.25
2023-01-27T03:05:20.774Z,95403.94
2023-01-27T03:07:47.845Z,95414.63
2023-01-27T03:10:14.603Z,95423.44
2023-01-27T03:12:41.075Z,95422.66
2023-01-27T03:15:08.433Z,95406.06
2023-01-27T03:17:35.888Z,95403.88
2023-01-27T03:20:02.718Z,95406.84
2023-01-27T03:22:29.739Z,95403.91
2023-01-27T03:24:56.379Z,95412.72
2023-01-27T03:27:23.724Z,95409.25
2023-01-27T03:30:09.802Z,95401.50
2023-01-27T03:32:37.218Z,95398.81
2023-01-27T03:35:27.414Z,95399.06
2023-01-27T03:37:56.399Z,95400.13
2023-01-27T03:40:22.943Z,95395.84
2023-01-27T03:42:53.223Z,95396.38
2023-01-27T03:45:19.825Z,95398.22
2023-01-27T03:47:46.412Z,95389.66
2023-01-27T03:50:12.960Z,95402.47
2023-01-27T03:52:40.062Z,95393.63
2023-01-27T03:55:07.066Z,95394.97
2023-01-27T03:57:33.688Z,95398.69
2023-01-27T04:00:00.295Z,95403.25
2023-01-27T04:02:26.884Z,95405.94
2023-01-27T04:04:53.404Z,95401.63
2023-01-27T04:07:19.985Z,95402.72
2023-01-27T04:09:46.518Z,95404.81
2023-01-27T04:12:13.200Z,95400.56
2023-01-27T04:14:42.405Z,95404.28
2023-01-27T04:17:17.119Z,95408.00
2023-01-27T04:19:45.197Z,95402.66
2023-01-27T04:22:12.894Z,95411.75
2023-01-27T04:24:39.625Z,95409.63
2023-01-27T04:27:09.946Z,95411.25
2023-01-27T04:29:38.862Z,95408.31
2023-01-27T04:32:06.143Z,95405.38
2023-01-27T04:34:32.892Z,95409.66
2023-01-27T04:36:59.939Z,95409.13
2023-01-27T04:39:26.847Z,95405.97
2023-01-27T04:41:53.409Z,95408.38
2023-01-27T04:44:19.868Z,95410.53
2023-01-27T04:46:47.218Z,95416.41
2023-01-27T04:49:13.847Z,95405.72
2023-01-27T04:51:40.580Z,95409.75
2023-01-27T04:54:07.411Z,95410.06
2023-01-27T04:56:36.658Z,95412.47
2023-01-27T04:59:06.704Z,95401.78
2023-01-27T05:01:33.811Z,95406.06
2023-01-27T05:04:00.485Z,95404.44
2023-01-27T05:06:28.011Z,95410.34
2023-01-27T05:08:54.610Z,95401.78
2023-01-27T05:11:21.517Z,95416.75
2023-01-27T05:13:48.815Z,95406.31
2023-01-27T05:16:21.415Z,95417.28
2023-01-27T05:18:49.091Z,95416.19
2023-01-27T05:21:18.699Z,95420.75
2023-01-27T05:23:45.497Z,95418.34
2023-01-27T05:26:21.189Z,95425.59
2023-01-27T05:28:49.870Z,95424.28
2023-01-27T05:31:17.667Z,95428.53
2023-01-27T05:33:45.180Z,95434.72
2023-01-27T05:36:14.008Z,95439.81
2023-01-27T05:38:40.913Z,95436.88
2023-01-27T05:41:08.945Z,95439.56
2023-01-27T05:43:36.504Z,95443.53
2023-01-27T05:46:05.978Z,95447.06
2023-01-27T05:48:34.171Z,95444.94
2023-01-27T05:51:00.789Z,95450.03
2023-01-27T05:53:27.417Z,95453.78
2023-01-27T05:55:54.623Z,95459.69
2023-01-27T05:58:22.164Z,95457.81
2023-01-27T06:00:49.850Z,95453.25
2023-01-27T06:03:16.906Z,95449.53
2023-01-27T06:05:53.922Z,95461.03
2023-01-27T06:08:21.102Z,95456.50
2023-01-27T06:10:47.715Z,95460.25
2023-01-27T06:13:14.387Z,95469.31
2023-01-27T06:15:42.877Z,95461.28
2023-01-27T06:18:09.827Z,95465.84
2023-01-27T06:20:36.726Z,95465.06
2023-01-27T06:23:03.554Z,95461.81
2023-01-27T06:25:30.551Z,95466.09
2023-01-27T06:27:57.966Z,95465.31
2023-01-27T06:30:24.517Z,95465.59
2023-01-27T06:32:51.017Z,95475.75
2023-01-27T06:35:17.625Z,95476.81
2023-01-27T06:37:44.358Z,95482.16
2023-01-27T06:40:11.758Z,95487.50
2023-01-27T06:42:41.531Z,95478.72
2023-01-27T06:45:10.557Z,95484.31
2023-01-27T06:47:38.689Z,95479.56
2023-01-27T06:50:06.007Z,95482.50
2023-01-27T06:52:32.605Z,95481.13
2023-01-27T06:54:59.103Z,95476.56
2023-01-27T06:57:25.928Z,95482.94
2023-01-27T06:59:52.500Z,95485.34
2023-01-27T07:02:19.130Z,95493.63
2023-01-27T07:04:45.742Z,95490.16
2023-01-27T07:07:12.425Z,95481.28
2023-01-27T07:09:51.759Z,95488.25
2023-01-27T07:12:19.167Z,95486.09
2023-01-27T07:14:45.667Z,95477.81
2023-01-27T07:17:12.181Z,95473.81
2023-01-27T07:19:39.031Z,95476.44
2023-01-27T07:22:05.625Z,95480.19
2023-01-27T07:24:32.245Z,95475.38
2023-01-27T07:26:58.887Z,95487.97
2023-01-27T07:29:25.406Z,95487.97
2023-01-27T07:31:52.075Z,95492.78
2023-01-27T07:34:18.655Z,95485.03
2023-01-27T07:36:45.228Z,95494.09
2023-01-27T07:39:12.290Z,95491.69
2023-01-27T07:41:38.903Z,95496.53
2023-01-27T07:44:05.536Z,95498.69
2023-01-27T07:46:33.534Z,95499.19
2023-01-27T07:49:00.043Z,95505.69
2023-01-27T07:51:26.578Z,95504.34
2023-01-27T07:53:53.230Z,95506.75
2023-01-27T07:56:19.897Z,95509.41
2023-01-27T07:58:46.631Z,95511.56
2023-01-27T08:01:13.182Z,95509.41
2023-01-27T08:03:39.917Z,95500.34
2023-01-27T08:06:12.269Z,95506.78
2023-01-27T08:08:39.190Z,95505.72
2023-01-27T08:11:08.680Z,95499.59
2023-01-27T08:13:36.372Z,95500.66
2023-01-27T08:16:05.976Z,95499.06
2023-01-27T08:18:33.170Z,95494.00
2023-01-27T08:21:01.536Z,95505.50
2023-01-27T08:23:28.170Z,95506.03
2023-01-27T08:26:00.307Z,95510.88
2023-01-27T08:28:28.927Z,95510.66
2023-01-27T08:31:02.927Z,95509.34
2023-01-27T08:33:29.488Z,95513.38
2023-01-27T08:35:56.097Z,95505.88
2023-01-27T08:38:22.628Z,95520.13
2023-01-27T08:40:49.247Z,95522.03
2023-01-27T08:43:16.261Z,95528.72
2023-01-27T08:45:43.269Z,95525.50
2023-01-27T08:48:12.290Z,95530.59
2023-01-27T08:50:38.933Z,95527.91
2023-01-27T08:53:05.489Z,95533.28
2023-01-27T08:55:33.128Z,95537.00
2023-01-27T08:57:59.703Z,95531.66
2023-01-27T09:00:26.407Z,95532.16
2023-01-27T09:02:53.149Z,95538.59
2023-01-27T09:05:20.142Z,95528.41
2023-01-27T09:07:46.985Z,95533.50
2023-01-27T09:10:15.629Z,95530.56
2023-01-27T09:12:44.009Z,95528.97
2023-01-27T09:15:11.946Z,95538.13
2023-01-27T09:17:38.498Z,95541.06
2023-01-27T09:20:05.482Z,95533.88
2023-01-27T09:22:32.009Z,95529.09
2023-01-27T09:25:01.106Z,95531.50
2023-01-27T09:27:38.865Z,95526.94
2023-01-27T09:30:06.931Z,95539.28
2023-01-27T09:32:33.670Z,95549.75
2023-01-27T09:35:00.270Z,95544.63
2023-01-27T09:37:27.974Z,95550.78
2023-01-27T09:40:02.967Z,95553.22
2023-01-27T09:42:38.488Z,95554.56
2023-01-27T09:45:14.244Z,95552.69
2023-01-27T09:48:06.082Z,95558.88
2023-01-27T09:50:41.368Z,95551.63
2023-01-27T09:53:26.632Z,95555.13
2023-01-27T09:56:01.504Z,95549.50
2023-01-27T09:58:53.099Z,95552.22
2023-01-27T10:01:39.566Z,95550.59
2023-01-27T10:04:28.321Z,95557.84
2023-01-27T10:07:03.600Z,95559.19
2023-01-27T10:09:46.771Z,95557.88
2023-01-27T10:12:40.825Z,95556.78
2023-01-27T10:15:42.461Z,95557.03
2023-01-27T10:18:31.124Z,95554.09
2023-01-27T10:21:18.870Z,95553.28
2023-01-27T10:23:51.359Z,95557.00
2023-01-27T10:26:34.344Z,95561.31
2023-01-27T10:29:09.154Z,95562.69
2023-01-27T10:31:42.222Z,95555.97
2023-01-27T10:34:28.903Z,95561.34
2023-01-27T10:37:12.355Z,95563.00
2023-01-27T10:40:12.271Z,95557.91
2023-01-27T10:42:53.746Z,95556.59
2023-01-27T10:45:37.282Z,95556.84
2023-01-27T10:48:12.556Z,95561.16
2023-01-27T10:50:51.485Z,95562.19
2023-01-27T10:53:28.972Z,95558.75
2023-01-27T10:56:04.986Z,95560.91
2023-01-27T10:58:49.610Z,95553.72
2023-01-27T11:01:23.015Z,95560.16
2023-01-27T11:04:11.040Z,95560.94
2023-01-27T11:06:40.503Z,95556.41
2023-01-27T11:09:24.935Z,95550.78
2023-01-27T11:11:53.276Z,95548.09
2023-01-27T11:14:30.017Z,95552.94
2023-01-27T11:17:15.751Z,95552.16
2023-01-27T11:19:54.538Z,95547.91
2023-01-27T11:22:24.146Z,95548.41
2023-01-27T11:25:17.422Z,95545.44
2023-01-27T11:28:02.765Z,95550.28
2023-01-27T11:30:40.164Z,95552.97
2023-01-27T11:33:31.361Z,95550.78
2023-01-27T11:35:57.909Z,95548.91
2023-01-27T11:42:11.817Z,95546.22
2023-01-27T11:44:39.343Z,95550.22
2023-01-27T11:47:08.519Z,95548.38
2023-01-27T11:49:42.598Z,95543.81
2023-01-27T11:52:15.068Z,95538.69
2023-01-27T11:54:50.676Z,95539.22
2023-01-27T11:57:23.094Z,95541.66
2023-01-27T11:59:59.416Z,95528.75
2023-01-27T12:02:36.276Z,95545.94
2023-01-27T12:05:24.667Z,95530.66
2023-01-27T12:07:58.857Z,95537.38
2023-01-27T12:10:34.296Z,95532.28
2023-01-27T12:13:23.226Z,95538.94
2023-01-27T12:15:52.560Z,95534.13
2023-01-27T12:18:19.392Z,95544.84
2023-01-27T12:20:49.091Z,95533.59
2023-01-27T12:23:29.913Z,95538.69
2023-01-27T12:26:02.335Z,95539.75
2023-01-27T12:28:32.776Z,95532.50
2023-01-27T12:31:23.329Z,95533.53
2023-01-27T12:34:27.998Z,95531.94
2023-01-27T12:36:55.796Z,95529.78
2023-01-27T12:39:41.766Z,95531.09
2023-01-27T12:42:38.155Z,95524.94
2023-01-27T12:45:23.811Z,95524.69
2023-01-27T12:48:01.673Z,95519.34
2023-01-27T12:50:31.920Z,95518.81
2023-01-27T12:53:14.578Z,95524.94
2023-01-27T12:55:59.448Z,95519.84
2023-01-27T12:58:45.984Z,95517.16
2023-01-27T13:01:26.124Z,95513.41
2023-01-27T13:04:06.181Z,95518.22
2023-01-27T13:06:50.561Z,95510.25
2023-01-27T13:09:24.757Z,95512.09
2023-01-27T13:11:52.274Z,95511.63
2023-01-27T13:14:19.454Z,95510.00
2023-01-27T13:16:56.950Z,95508.97
2023-01-27T13:19:37.910Z,95513.28
2023-01-27T13:22:06.017Z,95521.03
2023-01-27T13:24:42.284Z,95515.41
2023-01-27T13:27:16.524Z,95517.56
2023-01-27T13:29:54.948Z,95516.75
2023-01-27T13:32:31.963Z,95517.84
2023-01-27T13:35:10.706Z,95521.56
2023-01-27T13:37:54.499Z,95526.16
2023-01-27T13:40:30.712Z,95521.56
2023-01-27T13:43:10.753Z,95530.41
2023-01-27T13:45:44.235Z,95526.66
2023-01-27T13:48:24.765Z,95539.75
2023-01-27T13:51:14.976Z,95528.50
2023-01-27T13:53:41.834Z,95530.66
2023-01-27T13:56:22.420Z,95525.56
2023-01-27T13:59:30.478Z,95519.13
2023-01-27T14:02:31.601Z,95530.13
2023-01-27T14:05:25.686Z,95526.94
2023-01-27T14:08:07.720Z,95527.19
2023-01-27T14:10:45.418Z,95536.28
2023-01-27T14:13:33.393Z,95540.06
2023-01-27T14:16:18.800Z,95539.81
2023-01-27T14:18:52.385Z,95539.28
2023-01-27T14:21:42.170Z,95533.91
2023-01-27T14:24:30.909Z,95537.41
2023-01-27T14:27:26.876Z,95542.75
2023-01-27T14:30:31.349Z,95541.41
2023-01-27T14:33:35.224Z,95530.13
2023-01-27T14:36:10.735Z,95543.78
2023-01-27T14:38:54.207Z,95534.13
2023-01-27T14:41:44.923Z,95541.63
2023-01-27T14:44:43.988Z,95544.31
2023-01-27T14:47:54.463Z,95547.50
2023-01-27T14:50:33.741Z,95551.81
2023-01-27T14:53:34.247Z,95552.34
2023-01-27T14:56:21.133Z,95555.56
2023-01-27T14:59:13.184Z,95554.78
2023-01-27T15:01:45.032Z,95559.84
2023-01-27T15:04:26.298Z,95558.50
2023-01-27T15:07:16.001Z,95558.22
2023-01-27T15:09:48.522Z,95561.66
2023-01-27T15:12:25.987Z,95567.81
2023-01-27T15:15:30.060Z,95564.56
2023-01-27T15:18:36.999Z,95574.44
2023-01-27T15:21:33.862Z,95572.56
2023-01-27T15:24:23.760Z,95572.56
2023-01-27T15:26:50.645Z,95577.38
2023-01-27T15:29:19.826Z,95581.09
2023-01-27T15:32:15.540Z,95576.25
2023-01-27T15:34:44.521Z,95581.34
2023-01-27T15:37:26.167Z,95584.84
2023-01-27T15:40:05.626Z,95587.25
2023-01-27T15:43:02.901Z,95588.88
2023-01-27T15:45:34.275Z,95596.91
2023-01-27T15:48:31.323Z,95593.44
2023-01-27T15:51:04.460Z,95595.28
2023-01-27T15:53:39.797Z,95602.00
2023-01-27T15:56:06.739Z,95596.38
2023-01-27T15:58:55.036Z,95600.91
2023-01-27T16:01:27.891Z,95601.69
2023-01-27T16:04:05.706Z,95603.03
2023-01-27T16:06:33.079Z,95602.47
2023-01-27T16:09:05.286Z,95605.41
2023-01-27T16:11:31.698Z,95605.41
2023-01-27T16:14:24.387Z,95597.63
2023-01-27T16:16:51.014Z,95611.03
2023-01-27T16:19:21.314Z,95601.91
2023-01-27T16:22:02.404Z,95609.94
2023-01-27T16:24:36.051Z,95604.84
2023-01-27T16:27:23.239Z,95610.44
2023-01-27T16:29:58.567Z,95610.44
2023-01-27T16:32:35.543Z,95612.34
2023-01-27T16:35:05.557Z,95609.66
2023-01-27T16:37:38.751Z,95612.34
2023-01-27T16:40:15.543Z,95610.72
2023-01-27T16:43:04.123Z,95614.72
2023-01-27T16:45:42.312Z,95609.38
2023-01-27T16:48:21.571Z,95605.59
2023-01-27T16:50:48.658Z,95613.66
2023-01-27T16:53:20.309Z,95608.84
2023-01-27T16:56:02.265Z,95609.66
2023-01-27T16:58:44.589Z,95615.00
2023-01-27T17:01:27.019Z,95618.75
2023-01-27T17:04:00.632Z,95617.94
2023-01-27T17:06:31.001Z,95618.75
2023-01-27T17:08:57.575Z,95627.59
2023-01-27T17:11:30.065Z,95627.59
2023-01-27T17:14:21.315Z,95630.28
2023-01-27T17:16:58.323Z,95631.34
2023-01-27T17:19:30.097Z,95637.22
2023-01-27T17:22:02.209Z,95638.31
2023-01-27T17:24:31.872Z,95641.78
2023-01-27T17:27:09.241Z,95641.00
2023-01-27T17:29:39.842Z,95639.91
2023-01-27T17:32:28.863Z,95644.47
2023-01-27T17:34:58.149Z,95647.69
2023-01-27T17:37:25.245Z,95637.81
2023-01-27T17:39:55.278Z,95645.00
2023-01-27T17:42:25.343Z,95646.63
2023-01-27T17:44:51.950Z,95646.38
2023-01-27T17:47:20.893Z,95654.94
2023-01-27T17:49:51.325Z,95653.09
2023-01-27T17:52:21.602Z,95655.50
2023-01-27T17:54:49.534Z,95662.47
2023-01-27T17:57:21.503Z,95654.44
2023-01-27T18:00:18.079Z,95660.06
2023-01-27T18:02:57.735Z,95653.91
2023-01-27T18:05:29.211Z,95656.56
2023-01-27T18:07:55.744Z,95666.22
2023-01-27T18:10:29.934Z,95654.94
2023-01-27T18:12:57.673Z,95655.78
2023-01-27T18:17:58.903Z,95663.25
2023-01-27T18:20:34.328Z,95667.28
2023-01-27T18:23:04.338Z,95669.97
2023-01-27T18:25:30.950Z,95669.16
2023-01-27T18:28:00.060Z,95675.31
2023-01-27T18:30:26.664Z,95661.13
2023-01-27T18:33:01.595Z,95672.09
2023-01-27T18:35:33.684Z,95675.31
2023-01-27T18:38:03.735Z,95685.50
2023-01-27T18:40:33.112Z,95686.00
2023-01-27T18:43:00.663Z,95676.88
2023-01-27T18:45:27.625Z,95677.97
2023-01-27T18:47:55.311Z,95680.06
2023-01-27T18:50:26.447Z,95676.06
2023-01-27T18:52:54.121Z,95684.09
2023-01-27T18:55:39.110Z,95673.31
2023-01-27T18:58:05.603Z,95681.59
2023-01-27T19:00:55.313Z,95683.75
2023-01-27T19:03:24.430Z,95685.31
2023-01-27T19:05:51.378Z,95687.75
2023-01-27T19:08:20.598Z,95680.50
2023-01-27T19:10:48.498Z,95681.81
2023-01-27T19:13:16.019Z,95682.31
2023-01-27T19:15:47.259Z,95684.97
2023-01-27T19:18:34.576Z,95688.97
2023-01-27T19:21:02.033Z,95692.75
2023-01-27T19:23:28.918Z,95697.00
2023-01-27T19:25:58.265Z,95691.59
2023-01-27T19:28:31.304Z,95684.88
2023-01-27T19:30:57.880Z,95688.06
2023-01-27T19:33:29.333Z,95679.53
2023-01-27T19:36:10.700Z,95687.56
2023-01-27T19:38:37.176Z,95689.91
2023-01-27T19:41:03.676Z,95687.75
2023-01-27T19:43:30.163Z,95691.44
2023-01-27T19:45:56.873Z,95691.13
2023-01-27T19:48:24.536Z,95697.06
2023-01-27T19:50:52.248Z,95706.38
2023-01-27T19:53:20.073Z,95707.44
2023-01-27T19:55:47.035Z,95709.06
2023-01-27T19:58:22.314Z,95705.34
2023-01-27T20:00:49.148Z,95709.59
2023-01-27T20:03:15.665Z,95710.44
2023-01-27T20:05:42.182Z,95706.69
2023-01-27T20:08:16.092Z,95707.50
2023-01-27T20:10:43.183Z,95704.34
2023-01-27T20:13:13.522Z,95704.38
2023-01-27T20:15:40.457Z,95709.41
2023-01-27T20:18:08.017Z,95714.50
2023-01-27T20:20:34.488Z,95701.66
2023-01-27T20:23:00.999Z,95700.28
2023-01-27T20:25:28.729Z,95705.38
2023-01-27T20:28:00.662Z,95704.84
2023-01-27T20:30:30.423Z,95708.31
2023-01-27T20:32:56.963Z,95706.19
2023-01-27T20:35:23.648Z,95705.88
2023-01-27T20:37:51.858Z,95711.53
2023-01-27T20:40:24.695Z,95713.94
2023-01-27T20:42:52.407Z,95708.84
2023-01-27T20:45:19.518Z,95712.88
2023-01-27T20:47:53.543Z,95718.22
2023-01-27T20:50:21.489Z,95721.94
2023-01-27T20:52:48.061Z,95719.50
2023-01-27T20:55:15.425Z,95733.13
2023-01-27T20:57:42.415Z,95729.91
2023-01-27T21:00:18.024Z,95732.59
2023-01-27T21:02:44.551Z,95730.16
2023-01-27T21:05:12.193Z,95729.09
2023-01-27T21:07:39.071Z,95736.06
2023-01-27T21:10:06.428Z,95730.47
2023-01-27T21:12:32.971Z,95733.38
2023-01-27T21:14:59.453Z,95724.06
2023-01-27T21:17:26.012Z,95726.50
2023-01-27T21:19:52.500Z,95730.75
2023-01-27T21:22:18.964Z,95728.91
2023-01-27T21:24:45.446Z,95730.50
2023-01-27T21:27:12.195Z,95730.25
2023-01-27T21:29:38.662Z,95734.31
2023-01-27T21:32:05.180Z,95739.16
2023-01-27T21:34:31.664Z,95733.81
2023-01-27T21:36:58.188Z,95732.97
2023-01-27T21:39:25.004Z,95736.50
2023-01-27T21:41:51.474Z,95727.38
2023-01-27T21:44:20.915Z,95733.47
2023-01-27T21:46:47.461Z,95742.34
2023-01-27T21:49:14.009Z,95741.84
2023-01-27T21:51:40.646Z,95741.84
2023-01-27T21:54:07.176Z,95732.19
2023-01-27T21:56:33.780Z,95733.75
2023-01-27T21:59:00.427Z,95736.16
2023-01-27T22:01:27.978Z,95731.63
2023-01-27T22:03:55.598Z,95728.41
2023-01-27T22:06:22.100Z,95734.75
2023-01-27T22:08:51.853Z,95743.28
2023-01-27T22:11:19.089Z,95742.78
2023-01-27T22:13:45.728Z,95740.63
2023-01-27T22:16:16.328Z,95735.75
2023-01-27T22:18:43.446Z,95739.75
2023-01-27T22:21:10.182Z,95733.03
2023-01-27T22:23:36.736Z,95735.97
2023-01-27T22:26:06.811Z,95736.75
2023-01-27T22:28:33.319Z,95726.63
2023-01-27T22:31:02.732Z,95735.13
2023-01-27T22:33:29.376Z,95736.22
2023-01-27T22:36:00.873Z,95726.56
2023-01-27T22:38:27.339Z,95737.81
2023-01-27T22:41:00.319Z,95738.13
2023-01-27T22:43:26.943Z,95726.38
2023-01-27T22:45:53.492Z,95737.38
2023-01-27T22:48:20.267Z,95725.06
2023-01-27T22:50:47.115Z,95722.13
2023-01-27T22:53:13.630Z,95730.38
2023-01-27T22:55:40.176Z,95717.78
2023-01-27T22:58:07.262Z,95720.22
2023-01-27T23:00:33.819Z,95725.75
2023-01-27T23:03:01.433Z,95720.34
2023-01-27T23:05:28.400Z,95719.47
2023-01-27T23:07:55.018Z,95719.47
2023-01-27T23:10:21.531Z,95716.81
2023-01-27T23:12:48.028Z,95722.16
2023-01-27T23:15:15.019Z,95719.22
2023-01-27T23:17:41.610Z,95716.81
2023-01-27T23:20:08.679Z,95720.28
2023-01-27T23:22:35.155Z,95721.59
2023-01-27T23:25:01.743Z,95719.19
2023-01-27T23:27:28.233Z,95714.13
2023-01-27T23:29:54.795Z,95718.41
2023-01-27T23:32:21.293Z,95713.88
2023-01-27T23:34:47.971Z,95723.75
2023-01-27T23:37:14.841Z,95726.13
2023-01-27T23:39:41.551Z,95722.09
2023-01-27T23:42:08.014Z,95734.34
2023-01-27T23:44:34.555Z,95737.50
2023-01-27T23:47:01.225Z,95734.84
2023-01-27T23:49:27.890Z,95738.81
2023-01-27T23:51:54.380Z,95734.78
2023-01-27T23:54:20.860Z,95739.06
2023-01-27T23:56:47.399Z,95733.16
2023-01-27T23:59:14.133Z,95732.91
